NKS1023 KLAS-KLAX
Flight info
| Callsign | NKS1023 |
|---|---|
| Flight time | 0h 39m |
| Altitude | 28000 |
| Route | RADYR2 BLAQQ SHTNR ANJLL4 |
| Aircraft | A321/M-VGDW/C |
Departure
| Time | 2026-05-06 17:01 |
|---|---|
| Airport | Harry Reid International Airport (KLAS) |
Arrival
| Time | 2026-05-06 17:40 |
|---|---|
| Airport | Los Angeles International Airport (KLAX) |
| Time | Latitude | Longitude | Altitude | Speed | Heading |
|---|---|---|---|---|---|
| 2026-05-06 16:39 | 36.08504 | -115.15483 | 2188 ft | 0 kts | 56° |
| 2026-05-06 16:52 | 36.08498 | -115.15494 | 2190 ft | 3 kts | 56° |
| 2026-05-06 16:52 | 36.08486 | -115.15515 | 2189 ft | 3 kts | 56° |
| 2026-05-06 16:52 | 36.08476 | -115.15534 | 2192 ft | 2 kts | 56° |
| 2026-05-06 16:52 | 36.08465 | -115.15551 | 2192 ft | 3 kts | 31° |
| 2026-05-06 16:53 | 36.08449 | -115.15558 | 2190 ft | 3 kts | 354° |
| 2026-05-06 16:53 | 36.08432 | -115.15554 | 2190 ft | 2 kts | 336° |
| 2026-05-06 16:53 | 36.08429 | -115.15552 | 2190 ft | 0 kts | 335° |
| 2026-05-06 16:56 | 36.08434 | -115.15555 | 2190 ft | 2 kts | 335° |
| 2026-05-06 16:56 | 36.08471 | -115.15577 | 2188 ft | 10 kts | 335° |
| 2026-05-06 16:56 | 36.08498 | -115.15646 | 2189 ft | 11 kts | 260° |
| 2026-05-06 16:57 | 36.08552 | -115.15724 | 2192 ft | 14 kts | 334° |
| 2026-05-06 16:57 | 36.08647 | -115.15780 | 2190 ft | 16 kts | 335° |
| 2026-05-06 16:57 | 36.08752 | -115.15766 | 2190 ft | 16 kts | 25° |
| 2026-05-06 16:57 | 36.08860 | -115.15705 | 2191 ft | 18 kts | 24° |
| 2026-05-06 16:58 | 36.08977 | -115.15638 | 2190 ft | 19 kts | 26° |
| 2026-05-06 16:58 | 36.09102 | -115.15565 | 2188 ft | 20 kts | 24° |
| 2026-05-06 16:58 | 36.09234 | -115.15492 | 2188 ft | 21 kts | 24° |
| 2026-05-06 16:58 | 36.09370 | -115.15412 | 2188 ft | 22 kts | 26° |
| 2026-05-06 16:59 | 36.09512 | -115.15331 | 2191 ft | 23 kts | 25° |
| 2026-05-06 16:59 | 36.09651 | -115.15251 | 2189 ft | 22 kts | 25° |
| 2026-05-06 16:59 | 36.09764 | -115.15211 | 2188 ft | 14 kts | 344° |
| 2026-05-06 16:59 | 36.09819 | -115.15306 | 2189 ft | 14 kts | 295° |
| 2026-05-06 17:00 | 36.09815 | -115.15376 | 2192 ft | 7 kts | 212° |
| 2026-05-06 17:00 | 36.09740 | -115.15423 | 2190 ft | 33 kts | 206° |
| 2026-05-06 17:00 | 36.09284 | -115.15685 | 2191 ft | 109 kts | 204° |
| 2026-05-06 17:00 | 36.08409 | -115.16180 | 2215 ft | 162 kts | 204° |
| 2026-05-06 17:01 | 36.07371 | -115.16786 | 2853 ft | 166 kts | 205° |
| 2026-05-06 17:01 | 36.06321 | -115.17397 | 3679 ft | 169 kts | 205° |
| 2026-05-06 17:01 | 36.05231 | -115.18045 | 4302 ft | 178 kts | 205° |
| 2026-05-06 17:01 | 36.04063 | -115.18751 | 4700 ft | 195 kts | 206° |
| 2026-05-06 17:02 | 36.02808 | -115.19502 | 5140 ft | 206 kts | 206° |
| 2026-05-06 17:02 | 36.01469 | -115.20293 | 5535 ft | 223 kts | 205° |
| 2026-05-06 17:02 | 35.99996 | -115.21117 | 6007 ft | 241 kts | 201° |
| 2026-05-06 17:02 | 35.98379 | -115.21885 | 6599 ft | 256 kts | 200° |
| 2026-05-06 17:03 | 35.96670 | -115.22667 | 7219 ft | 267 kts | 200° |
| 2026-05-06 17:03 | 35.94936 | -115.23447 | 7989 ft | 271 kts | 200° |
| 2026-05-06 17:03 | 35.93139 | -115.24247 | 8739 ft | 278 kts | 200° |
| 2026-05-06 17:03 | 35.91296 | -115.25069 | 9487 ft | 285 kts | 200° |
| 2026-05-06 17:04 | 35.89421 | -115.25914 | 10279 ft | 289 kts | 200° |
| 2026-05-06 17:04 | 35.87525 | -115.26782 | 11005 ft | 293 kts | 200° |
| 2026-05-06 17:04 | 35.85602 | -115.27667 | 11758 ft | 296 kts | 200° |
| 2026-05-06 17:04 | 35.83656 | -115.28553 | 12532 ft | 300 kts | 199° |
| 2026-05-06 17:05 | 35.81689 | -115.29437 | 13319 ft | 303 kts | 199° |
| 2026-05-06 17:05 | 35.79673 | -115.30333 | 13857 ft | 315 kts | 199° |
| 2026-05-06 17:05 | 35.77546 | -115.31279 | 14142 ft | 334 kts | 199° |
| 2026-05-06 17:05 | 35.75513 | -115.32194 | 14355 ft | 350 kts | 199° |
| 2026-05-06 17:06 | 35.73178 | -115.33248 | 14687 ft | 364 kts | 199° |
| 2026-05-06 17:06 | 35.70774 | -115.34334 | 15207 ft | 372 kts | 199° |
| 2026-05-06 17:06 | 35.68327 | -115.35444 | 15813 ft | 377 kts | 200° |
| 2026-05-06 17:06 | 35.65855 | -115.36568 | 16450 ft | 381 kts | 200° |
| 2026-05-06 17:07 | 35.63356 | -115.37700 | 17089 ft | 385 kts | 199° |
| 2026-05-06 17:07 | 35.60753 | -115.38541 | 17710 ft | 389 kts | 188° |
| 2026-05-06 17:07 | 35.58048 | -115.38710 | 18403 ft | 391 kts | 176° |
| 2026-05-06 17:07 | 35.55338 | -115.38390 | 19023 ft | 393 kts | 174° |
| 2026-05-06 17:08 | 35.52602 | -115.38110 | 19572 ft | 397 kts | 175° |
| 2026-05-06 17:08 | 35.49831 | -115.37894 | 20115 ft | 401 kts | 176° |
| 2026-05-06 17:08 | 35.47030 | -115.37768 | 20666 ft | 405 kts | 181° |
| 2026-05-06 17:08 | 35.44231 | -115.38231 | 21240 ft | 408 kts | 194° |
| 2026-05-06 17:09 | 35.41532 | -115.39347 | 21795 ft | 411 kts | 204° |
| 2026-05-06 17:09 | 35.38983 | -115.40945 | 22343 ft | 414 kts | 209° |
| 2026-05-06 17:09 | 35.36427 | -115.42614 | 22884 ft | 416 kts | 208° |
| 2026-05-06 17:09 | 35.33852 | -115.44244 | 23485 ft | 418 kts | 207° |
| 2026-05-06 17:10 | 35.31255 | -115.45872 | 23934 ft | 422 kts | 207° |
| 2026-05-06 17:10 | 35.28630 | -115.47516 | 24375 ft | 424 kts | 207° |
| 2026-05-06 17:10 | 35.25998 | -115.49169 | 24802 ft | 427 kts | 208° |
| 2026-05-06 17:10 | 35.23348 | -115.50850 | 25224 ft | 430 kts | 208° |
| 2026-05-06 17:11 | 35.20688 | -115.52548 | 25652 ft | 432 kts | 208° |
| 2026-05-06 17:11 | 35.18016 | -115.54255 | 26086 ft | 435 kts | 208° |
| 2026-05-06 17:11 | 35.15327 | -115.55968 | 26505 ft | 437 kts | 208° |
| 2026-05-06 17:11 | 35.12740 | -115.57929 | 26885 ft | 440 kts | 217° |
| 2026-05-06 17:12 | 35.10424 | -115.60378 | 27288 ft | 441 kts | 226° |
| 2026-05-06 17:12 | 35.08303 | -115.63101 | 27682 ft | 444 kts | 227° |
| 2026-05-06 17:12 | 35.06171 | -115.65838 | 28008 ft | 446 kts | 227° |
| 2026-05-06 17:13 | 35.01838 | -115.71377 | 28092 ft | 461 kts | 227° |
| 2026-05-06 17:13 | 34.97334 | -115.77118 | 28090 ft | 473 kts | 227° |
| 2026-05-06 17:14 | 34.92770 | -115.82916 | 28094 ft | 474 kts | 227° |
| 2026-05-06 17:14 | 34.88204 | -115.88719 | 28076 ft | 474 kts | 227° |
| 2026-05-06 17:15 | 34.83632 | -115.94533 | 28090 ft | 475 kts | 227° |
| 2026-05-06 17:15 | 34.79053 | -116.00326 | 28076 ft | 475 kts | 226° |
| 2026-05-06 17:16 | 34.74471 | -116.06120 | 28068 ft | 475 kts | 227° |
| 2026-05-06 17:16 | 34.69910 | -116.11947 | 28056 ft | 476 kts | 227° |
| 2026-05-06 17:17 | 34.65381 | -116.17741 | 28056 ft | 476 kts | 227° |
| 2026-05-06 17:17 | 34.60808 | -116.23550 | 28060 ft | 476 kts | 227° |
| 2026-05-06 17:18 | 34.56215 | -116.29357 | 28077 ft | 477 kts | 227° |
| 2026-05-06 17:18 | 34.51624 | -116.35168 | 28069 ft | 477 kts | 227° |
| 2026-05-06 17:19 | 34.47025 | -116.40983 | 28084 ft | 478 kts | 227° |
| 2026-05-06 17:19 | 34.42483 | -116.46867 | 28064 ft | 478 kts | 233° |
| 2026-05-06 17:19 | 34.40676 | -116.50175 | 28099 ft | 462 kts | 243° |
| 2026-05-06 17:20 | 34.39264 | -116.53585 | 28086 ft | 448 kts | 245° |
| 2026-05-06 17:20 | 34.37888 | -116.56948 | 27952 ft | 444 kts | 245° |
| 2026-05-06 17:20 | 34.36516 | -116.60290 | 27669 ft | 443 kts | 245° |
| 2026-05-06 17:20 | 34.35138 | -116.63627 | 27408 ft | 443 kts | 245° |
| 2026-05-06 17:21 | 34.33775 | -116.66919 | 27142 ft | 432 kts | 244° |
| 2026-05-06 17:21 | 34.32450 | -116.70135 | 26889 ft | 424 kts | 245° |
| 2026-05-06 17:21 | 34.31590 | -116.72254 | 26719 ft | 422 kts | 245° |
| 2026-05-06 17:21 | 34.30311 | -116.75442 | 26388 ft | 421 kts | 245° |
| 2026-05-06 17:22 | 34.29042 | -116.78627 | 25845 ft | 419 kts | 246° |
| 2026-05-06 17:22 | 34.27780 | -116.81790 | 25315 ft | 417 kts | 246° |
| 2026-05-06 17:22 | 34.26517 | -116.84928 | 24774 ft | 415 kts | 245° |
| 2026-05-06 17:22 | 34.25256 | -116.88055 | 24252 ft | 413 kts | 245° |
| 2026-05-06 17:23 | 34.24000 | -116.91170 | 23828 ft | 410 kts | 245° |
| 2026-05-06 17:23 | 34.22757 | -116.94248 | 23140 ft | 406 kts | 245° |
| 2026-05-06 17:23 | 34.21526 | -116.97299 | 22644 ft | 402 kts | 246° |
| 2026-05-06 17:23 | 34.20534 | -117.00440 | 22140 ft | 398 kts | 254° |
| 2026-05-06 17:24 | 34.19678 | -117.03613 | 21635 ft | 396 kts | 254° |
| 2026-05-06 17:24 | 34.18823 | -117.06768 | 21133 ft | 394 kts | 253° |
| 2026-05-06 17:24 | 34.17977 | -117.09887 | 20638 ft | 389 kts | 253° |
| 2026-05-06 17:24 | 34.17139 | -117.12985 | 20145 ft | 387 kts | 253° |
| 2026-05-06 17:25 | 34.16307 | -117.16066 | 19653 ft | 385 kts | 253° |
| 2026-05-06 17:25 | 34.15475 | -117.19134 | 19156 ft | 384 kts | 253° |
| 2026-05-06 17:25 | 34.14640 | -117.22181 | 18668 ft | 382 kts | 253° |
| 2026-05-06 17:25 | 34.13803 | -117.25213 | 18143 ft | 379 kts | 253° |
| 2026-05-06 17:26 | 34.12973 | -117.28205 | 17605 ft | 372 kts | 253° |
| 2026-05-06 17:26 | 34.12156 | -117.31141 | 17034 ft | 367 kts | 253° |
| 2026-05-06 17:26 | 34.11347 | -117.34056 | 16570 ft | 365 kts | 253° |
| 2026-05-06 17:26 | 34.10551 | -117.36936 | 16127 ft | 360 kts | 253° |
| 2026-05-06 17:27 | 34.09788 | -117.39802 | 15632 ft | 357 kts | 254° |
| 2026-05-06 17:27 | 34.09068 | -117.42657 | 15165 ft | 354 kts | 255° |
| 2026-05-06 17:27 | 34.08375 | -117.45477 | 14835 ft | 344 kts | 255° |
| 2026-05-06 17:27 | 34.07708 | -117.48198 | 14306 ft | 336 kts | 255° |
| 2026-05-06 17:28 | 34.06949 | -117.50864 | 13831 ft | 336 kts | 249° |
| 2026-05-06 17:28 | 34.06035 | -117.53438 | 13333 ft | 332 kts | 248° |
| 2026-05-06 17:28 | 34.05119 | -117.55984 | 12857 ft | 330 kts | 248° |
| 2026-05-06 17:28 | 34.04208 | -117.58518 | 12339 ft | 330 kts | 248° |
| 2026-05-06 17:29 | 34.03296 | -117.61049 | 11829 ft | 329 kts | 248° |
| 2026-05-06 17:29 | 34.02383 | -117.63576 | 11344 ft | 329 kts | 248° |
| 2026-05-06 17:29 | 34.01477 | -117.66085 | 10852 ft | 322 kts | 248° |
| 2026-05-06 17:29 | 34.00742 | -117.68531 | 10368 ft | 309 kts | 258° |
| 2026-05-06 17:30 | 34.00407 | -117.71082 | 9958 ft | 298 kts | 265° |
| 2026-05-06 17:30 | 34.00177 | -117.73512 | 9566 ft | 289 kts | 265° |
| 2026-05-06 17:30 | 33.99946 | -117.75917 | 9223 ft | 287 kts | 265° |
| 2026-05-06 17:30 | 33.99723 | -117.78192 | 8933 ft | 285 kts | 265° |
| 2026-05-06 17:31 | 33.99542 | -117.80149 | 8678 ft | 284 kts | 265° |
| 2026-05-06 17:31 | 33.99316 | -117.82498 | 8370 ft | 282 kts | 265° |
| 2026-05-06 17:31 | 33.99095 | -117.84733 | 8081 ft | 280 kts | 265° |
| 2026-05-06 17:31 | 33.98864 | -117.87057 | 7753 ft | 279 kts | 265° |
| 2026-05-06 17:32 | 33.98634 | -117.89370 | 7418 ft | 277 kts | 265° |
| 2026-05-06 17:32 | 33.98407 | -117.91665 | 7101 ft | 275 kts | 264° |
| 2026-05-06 17:32 | 33.98180 | -117.93951 | 6784 ft | 274 kts | 265° |
| 2026-05-06 17:32 | 33.97954 | -117.96223 | 6467 ft | 272 kts | 264° |
| 2026-05-06 17:33 | 33.97724 | -117.98476 | 6128 ft | 268 kts | 264° |
| 2026-05-06 17:33 | 33.97505 | -118.00673 | 5793 ft | 259 kts | 265° |
| 2026-05-06 17:33 | 33.97296 | -118.02786 | 5472 ft | 250 kts | 265° |
| 2026-05-06 17:33 | 33.97092 | -118.04857 | 5148 ft | 249 kts | 265° |
| 2026-05-06 17:34 | 33.96890 | -118.06891 | 5008 ft | 240 kts | 265° |
| 2026-05-06 17:34 | 33.96697 | -118.08828 | 4885 ft | 230 kts | 265° |
| 2026-05-06 17:34 | 33.96509 | -118.10718 | 4605 ft | 224 kts | 265° |
| 2026-05-06 17:34 | 33.96327 | -118.12556 | 4311 ft | 219 kts | 265° |
| 2026-05-06 17:35 | 33.96149 | -118.14361 | 4005 ft | 215 kts | 265° |
| 2026-05-06 17:35 | 33.95971 | -118.16133 | 3747 ft | 211 kts | 265° |
| 2026-05-06 17:35 | 33.95795 | -118.17859 | 3500 ft | 203 kts | 265° |
| 2026-05-06 17:36 | 33.95475 | -118.21084 | 2934 ft | 188 kts | 264° |
| 2026-05-06 17:36 | 33.95316 | -118.22638 | 2669 ft | 186 kts | 263° |
| 2026-05-06 17:36 | 33.95161 | -118.24184 | 2457 ft | 186 kts | 263° |
| 2026-05-06 17:36 | 33.95008 | -118.25725 | 2222 ft | 185 kts | 263° |
| 2026-05-06 17:37 | 33.94855 | -118.27264 | 1990 ft | 185 kts | 262° |
| 2026-05-06 17:37 | 33.94702 | -118.28753 | 1761 ft | 172 kts | 262° |
| 2026-05-06 17:37 | 33.94564 | -118.30131 | 1491 ft | 159 kts | 262° |
| 2026-05-06 17:37 | 33.94433 | -118.31402 | 1317 ft | 150 kts | 262° |
| 2026-05-06 17:38 | 33.94309 | -118.32630 | 1078 ft | 147 kts | 262° |
| 2026-05-06 17:38 | 33.94190 | -118.33839 | 867 ft | 146 kts | 262° |
| 2026-05-06 17:38 | 33.94065 | -118.35066 | 671 ft | 146 kts | 262° |
| 2026-05-06 17:38 | 33.93940 | -118.36278 | 480 ft | 146 kts | 262° |
| 2026-05-06 17:39 | 33.93818 | -118.37486 | 300 ft | 145 kts | 263° |
| 2026-05-06 17:39 | 33.93694 | -118.38673 | 138 ft | 145 kts | 263° |
| 2026-05-06 17:39 | 33.93585 | -118.39775 | 111 ft | 109 kts | 263° |
| 2026-05-06 17:39 | 33.93513 | -118.40467 | 113 ft | 53 kts | 262° |
| 2026-05-06 17:40 | 33.93476 | -118.40843 | 112 ft | 38 kts | 267° |
| 2026-05-06 17:40 | 33.93501 | -118.41057 | 112 ft | 21 kts | 285° |
| 2026-05-06 17:40 | 33.93542 | -118.41200 | 106 ft | 15 kts | 292° |
| 2026-05-06 17:40 | 33.93618 | -118.41264 | 109 ft | 13 kts | 352° |
| 2026-05-06 17:41 | 33.93707 | -118.41278 | 107 ft | 12 kts | 353° |
| 2026-05-06 17:41 | 33.93756 | -118.41199 | 103 ft | 15 kts | 82° |
| 2026-05-06 17:41 | 33.93768 | -118.41064 | 102 ft | 17 kts | 81° |
| 2026-05-06 17:41 | 33.93782 | -118.40946 | 102 ft | 14 kts | 83° |
| 2026-05-06 17:42 | 33.93795 | -118.40823 | 102 ft | 15 kts | 83° |
| 2026-05-06 17:42 | 33.93807 | -118.40690 | 103 ft | 17 kts | 82° |
| 2026-05-06 17:42 | 33.93822 | -118.40545 | 103 ft | 18 kts | 84° |
| 2026-05-06 17:42 | 33.93837 | -118.40407 | 104 ft | 12 kts | 81° |
| 2026-05-06 17:43 | 33.93847 | -118.40310 | 104 ft | 9 kts | 80° |
| 2026-05-06 17:43 | 33.93911 | -118.40293 | 99 ft | 10 kts | 353° |
| 2026-05-06 17:43 | 33.93985 | -118.40305 | 97 ft | 10 kts | 350° |
| 2026-05-06 17:43 | 33.94049 | -118.40317 | 96 ft | 4 kts | 351° |
| 2026-05-06 17:44 | 33.94059 | -118.40338 | 97 ft | 4 kts | 276° |
| 2026-05-06 17:44 | 33.94058 | -118.40373 | 97 ft | 2 kts | 265° |
| 2026-05-06 17:44 | 33.94058 | -118.40378 | 96 ft | 0 kts | 264° |